createdAt,value
2023-01-11T00:00:37.067Z,20.34
2023-01-11T00:03:05.714Z,20.31
2023-01-11T00:05:37.464Z,20.31
2023-01-11T00:08:05.039Z,20.30
2023-01-11T00:10:33.502Z,20.28
2023-01-11T00:13:01.747Z,20.23
2023-01-11T00:15:28.844Z,20.22
2023-01-11T00:17:56.236Z,20.20
2023-01-11T00:20:23.489Z,20.16
2023-01-11T00:22:50.772Z,20.17
2023-01-11T00:25:18.302Z,20.18
2023-01-11T00:27:47.517Z,20.22
2023-01-11T00:30:14.842Z,20.21
2023-01-11T00:32:42.591Z,20.21
2023-01-11T00:35:09.907Z,20.24
2023-01-11T00:37:36.916Z,20.15
2023-01-11T00:40:04.490Z,20.06
2023-01-11T00:42:49.843Z,19.99
2023-01-11T00:45:35.375Z,19.92
2023-01-11T00:48:06.183Z,19.90
2023-01-11T00:50:36.068Z,19.91
2023-01-11T00:53:03.962Z,19.90
2023-01-11T00:55:34.199Z,19.99
2023-01-11T00:58:02.174Z,20.05
2023-01-11T01:00:29.845Z,20.13
2023-01-11T01:02:57.127Z,20.16
2023-01-11T01:05:24.822Z,20.17
2023-01-11T01:07:51.904Z,20.17
2023-01-11T01:10:20.337Z,20.20
2023-01-11T01:13:06.188Z,20.20
2023-01-11T01:15:34.212Z,20.20
2023-01-11T01:18:01.404Z,20.23
2023-01-11T01:20:28.553Z,20.26
2023-01-11T01:22:55.616Z,20.25
2023-01-11T01:25:22.714Z,20.21
2023-01-11T01:27:49.875Z,20.15
2023-01-11T01:30:17.153Z,20.13
2023-01-11T01:32:44.239Z,20.12
2023-01-11T01:35:11.339Z,20.08
2023-01-11T01:37:38.380Z,20.06
2023-01-11T01:40:06.355Z,20.06
2023-01-11T01:42:33.379Z,20.05
2023-01-11T01:45:25.496Z,20.05
2023-01-11T01:47:59.530Z,20.04
2023-01-11T01:50:55.536Z,20.07
2023-01-11T01:53:28.006Z,20.12
2023-01-11T01:56:01.800Z,20.14
2023-01-11T01:58:34.547Z,20.15
2023-01-11T02:01:21.852Z,20.10
2023-01-11T02:03:49.883Z,20.12
2023-01-11T02:06:16.966Z,20.12
2023-01-11T02:08:48.724Z,20.13
2023-01-11T02:11:32.522Z,20.10
2023-01-11T02:14:03.416Z,20.04
2023-01-11T02:16:30.754Z,20.04
2023-01-11T02:18:58.611Z,20.04
2023-01-11T02:21:40.318Z,20.03
2023-01-11T02:24:10.106Z,19.98
2023-01-11T02:26:44.612Z,19.91
2023-01-11T02:29:33.604Z,19.85
2023-01-11T02:32:37.966Z,19.78
2023-01-11T02:35:19.898Z,19.72
2023-01-11T02:37:56.103Z,19.70
2023-01-11T02:40:37.133Z,19.68
2023-01-11T02:43:47.431Z,19.65
2023-01-11T02:46:33.306Z,19.62
2023-01-11T02:49:12.009Z,19.59
2023-01-11T02:51:43.564Z,19.55
2023-01-11T02:54:12.265Z,19.53
2023-01-11T02:56:46.757Z,19.53
2023-01-11T02:59:19.622Z,19.56
2023-01-11T03:01:48.473Z,19.59
2023-01-11T03:04:27.323Z,19.61
2023-01-11T03:07:11.324Z,19.60
2023-01-11T03:09:56.049Z,19.63
2023-01-11T03:12:52.298Z,19.67
2023-01-11T03:15:44.972Z,19.66
2023-01-11T03:18:17.812Z,19.63
2023-01-11T03:20:55.265Z,19.62
2023-01-11T03:23:32.325Z,19.63
2023-01-11T03:26:29.396Z,19.66
2023-01-11T03:29:21.235Z,19.73
2023-01-11T03:31:48.197Z,19.74
2023-01-11T03:34:33.073Z,19.80
2023-01-11T03:37:26.359Z,19.84
2023-01-11T03:40:03.051Z,19.80
2023-01-11T03:42:32.532Z,19.72
2023-01-11T03:45:01.354Z,19.64
2023-01-11T03:47:30.290Z,19.65
2023-01-11T03:50:05.575Z,19.67
2023-01-11T03:52:37.489Z,19.69
2023-01-11T03:55:08.467Z,19.71
2023-01-11T03:57:43.424Z,19.70
2023-01-11T04:00:11.520Z,19.69
2023-01-11T04:02:42.218Z,19.67
2023-01-11T04:05:11.670Z,19.66
2023-01-11T04:07:38.773Z,19.69
2023-01-11T04:10:06.553Z,19.69
2023-01-11T04:12:33.852Z,19.67
2023-01-11T04:15:03.287Z,19.70
2023-01-11T04:17:30.264Z,19.73
2023-01-11T04:19:57.441Z,19.74
2023-01-11T04:22:24.372Z,19.75
2023-01-11T04:24:51.301Z,19.72
2023-01-11T04:27:18.299Z,19.67
2023-01-11T04:29:45.229Z,19.62
2023-01-11T04:32:12.221Z,19.56
2023-01-11T04:34:39.167Z,19.48
2023-01-11T04:37:06.262Z,19.43
2023-01-11T04:39:33.867Z,19.39
2023-01-11T04:42:18.854Z,19.44
2023-01-11T04:44:48.989Z,19.43
2023-01-11T04:47:17.175Z,19.41
2023-01-11T04:49:44.318Z,19.38
2023-01-11T04:52:12.568Z,19.35
2023-01-11T04:54:39.852Z,19.35
2023-01-11T04:57:08.109Z,19.33
2023-01-11T04:59:35.101Z,19.25
2023-01-11T05:02:02.027Z,19.15
2023-01-11T05:04:29.201Z,19.08
2023-01-11T05:06:56.253Z,19.02
2023-01-11T05:09:23.500Z,18.97
2023-01-11T05:11:50.627Z,18.92
2023-01-11T05:14:18.203Z,18.90
2023-01-11T05:16:45.422Z,18.88
2023-01-11T05:19:13.168Z,18.92
2023-01-11T05:21:42.255Z,18.95
2023-01-11T05:24:13.065Z,19.01
2023-01-11T05:26:42.151Z,19.10
2023-01-11T05:29:16.539Z,19.19
2023-01-11T05:31:43.709Z,19.28
2023-01-11T05:34:13.176Z,19.34
2023-01-11T05:36:41.154Z,19.38
2023-01-11T05:39:08.346Z,19.43
2023-01-11T05:41:35.753Z,19.46
2023-01-11T05:44:21.425Z,19.50
2023-01-11T05:46:48.437Z,19.55
2023-01-11T05:49:15.997Z,19.53
2023-01-11T05:51:43.767Z,19.55
2023-01-11T05:54:14.689Z,19.54
2023-01-11T05:56:45.522Z,19.56
2023-01-11T05:59:12.564Z,19.60
2023-01-11T06:01:40.054Z,19.63
2023-01-11T06:04:08.751Z,19.62
2023-01-11T06:06:35.992Z,19.62
2023-01-11T06:09:03.255Z,19.60
2023-01-11T06:11:30.289Z,19.55
2023-01-11T06:13:57.376Z,19.49
2023-01-11T06:16:24.609Z,19.45
2023-01-11T06:18:53.102Z,19.44
2023-01-11T06:21:21.191Z,19.39
2023-01-11T06:23:51.189Z,19.36
2023-01-11T06:26:20.817Z,19.37
2023-01-11T06:28:48.420Z,19.42
2023-01-11T06:31:17.612Z,19.45
2023-01-11T06:33:46.063Z,19.52
2023-01-11T06:36:14.497Z,19.55
2023-01-11T06:38:42.420Z,19.56
2023-01-11T06:41:10.288Z,19.58
2023-01-11T06:43:38.815Z,19.60
2023-01-11T06:46:06.167Z,19.57
2023-01-11T06:48:33.327Z,19.51
2023-01-11T06:51:00.382Z,19.48
2023-01-11T06:53:29.225Z,19.49
2023-01-11T06:55:58.497Z,19.47
2023-01-11T06:58:26.347Z,19.49
2023-01-11T07:00:55.578Z,19.52
2023-01-11T07:03:24.881Z,19.55
2023-01-11T07:05:59.441Z,19.58
2023-01-11T07:08:27.236Z,19.57
2023-01-11T07:10:55.113Z,19.53
2023-01-11T07:13:23.470Z,19.48
2023-01-11T07:15:52.044Z,19.44
2023-01-11T07:18:19.994Z,19.37
2023-01-11T07:20:47.302Z,19.33
2023-01-11T07:23:14.521Z,19.37
2023-01-11T07:25:41.683Z,19.37
2023-01-11T07:28:09.844Z,19.39
2023-01-11T07:30:55.984Z,19.40
2023-01-11T07:33:24.663Z,19.41
2023-01-11T07:35:52.577Z,19.39
2023-01-11T07:38:19.908Z,19.34
2023-01-11T07:40:47.170Z,19.31
2023-01-11T07:43:19.742Z,19.30
2023-01-11T07:45:49.940Z,19.25
2023-01-11T07:48:25.398Z,19.24
2023-01-11T07:50:53.576Z,19.25
2023-01-11T07:53:20.781Z,19.28
2023-01-11T07:55:47.981Z,19.33
2023-01-11T07:58:15.767Z,19.35
2023-01-11T08:00:43.428Z,19.36
2023-01-11T08:03:11.059Z,19.38
2023-01-11T08:05:38.378Z,19.42
2023-01-11T08:08:05.835Z,19.43
2023-01-11T08:10:33.868Z,19.46
2023-01-11T08:13:19.864Z,19.44
2023-01-11T08:15:47.420Z,19.45
2023-01-11T08:18:14.643Z,19.47
2023-01-11T08:20:41.813Z,19.48
2023-01-11T08:23:10.796Z,19.52
2023-01-11T08:25:38.403Z,19.50
2023-01-11T08:28:07.426Z,19.49
2023-01-11T08:30:35.255Z,19.50
2023-01-11T08:33:02.877Z,19.49
2023-01-11T08:35:30.911Z,19.44
2023-01-11T08:37:58.104Z,19.40
2023-01-11T08:40:25.913Z,19.37
2023-01-11T08:42:57.304Z,19.35
2023-01-11T08:45:24.870Z,19.34
2023-01-11T08:47:52.387Z,19.36
2023-01-11T08:50:21.376Z,19.39
2023-01-11T08:52:51.464Z,19.40
2023-01-11T08:55:19.883Z,19.24
2023-01-11T08:57:47.175Z,19.07
2023-01-11T09:00:14.951Z,19.08
2023-01-11T09:02:42.013Z,19.18
2023-01-11T09:05:09.631Z,19.13
2023-01-11T09:07:36.773Z,19.06
2023-01-11T09:10:04.626Z,18.99
2023-01-11T09:12:33.000Z,19.03
2023-01-11T09:15:00.473Z,19.08
2023-01-11T09:17:27.873Z,19.06
2023-01-11T09:19:54.927Z,19.00
2023-01-11T09:22:22.467Z,19.01
2023-01-11T09:24:49.669Z,19.04
2023-01-11T09:27:16.841Z,19.05
2023-01-11T09:29:44.111Z,19.08
2023-01-11T09:32:11.154Z,19.11
2023-01-11T09:34:39.450Z,19.17
2023-01-11T09:37:07.322Z,19.18
2023-01-11T09:39:35.437Z,19.24
2023-01-11T09:42:37.024Z,19.34
2023-01-11T09:45:14.690Z,19.45
2023-01-11T09:47:41.735Z,19.57
2023-01-11T09:50:23.853Z,19.71
2023-01-11T09:52:57.571Z,19.84
2023-01-11T09:55:35.188Z,19.94
2023-01-11T09:58:28.621Z,20.04
2023-01-11T10:01:20.469Z,20.12
2023-01-11T10:04:03.663Z,20.14
2023-01-11T10:06:36.413Z,20.12
2023-01-11T10:18:28.985Z,20.27
2023-01-11T10:19:30.868Z,20.19
2023-01-11T10:21:50.980Z,20.26
2023-01-11T10:24:25.530Z,20.33
2023-01-11T10:27:02.439Z,20.41
2023-01-11T10:29:52.143Z,20.44
2023-01-11T10:32:50.131Z,20.40
2023-01-11T10:35:30.288Z,20.51
2023-01-11T10:38:29.629Z,20.62
2023-01-11T10:41:16.054Z,20.70
2023-01-11T10:43:46.373Z,20.82
2023-01-11T10:46:19.911Z,20.88
2023-01-11T10:48:47.545Z,20.98
2023-01-11T10:51:25.664Z,21.07
2023-01-11T10:54:23.411Z,21.05
2023-01-11T10:57:59.406Z,20.99
2023-01-11T11:00:36.778Z,20.90
2023-01-11T11:03:20.991Z,20.95
2023-01-11T11:05:47.868Z,20.93
2023-01-11T11:08:40.269Z,20.95
2023-01-11T11:11:19.351Z,21.02
2023-01-11T11:14:07.829Z,21.14
2023-01-11T11:16:50.442Z,21.25
2023-01-11T11:19:22.428Z,21.35
2023-01-11T11:21:52.560Z,21.39
2023-01-11T11:24:48.162Z,21.38
2023-01-11T11:27:38.524Z,21.32
2023-01-11T11:30:06.643Z,21.13
2023-01-11T11:32:37.129Z,21.03
2023-01-11T11:35:05.098Z,21.14
2023-01-11T11:37:39.042Z,21.22
2023-01-11T11:40:06.756Z,21.31
2023-01-11T11:42:33.801Z,21.08
2023-01-11T11:45:10.072Z,21.03
2023-01-11T11:47:40.264Z,20.90
2023-01-11T11:50:43.252Z,20.96
2023-01-11T11:53:39.486Z,21.12
2023-01-11T11:56:14.418Z,21.08
2023-01-11T11:58:42.748Z,21.10
2023-01-11T12:01:23.916Z,21.22
2023-01-11T12:03:53.867Z,21.28
2023-01-11T12:06:28.033Z,21.37
2023-01-11T12:08:56.332Z,21.41
2023-01-11T12:11:30.531Z,21.37
2023-01-11T12:14:04.846Z,21.38
2023-01-11T12:16:38.226Z,21.43
2023-01-11T12:19:48.418Z,21.54
2023-01-11T12:22:23.102Z,21.63
2023-01-11T12:25:08.667Z,21.54
2023-01-11T12:27:47.649Z,21.50
2023-01-11T12:30:20.598Z,21.44
2023-01-11T12:32:56.595Z,21.34
2023-01-11T12:35:35.874Z,21.28
2023-01-11T12:38:31.642Z,21.27
2023-01-11T12:41:09.890Z,21.24
2023-01-11T12:43:45.872Z,21.27
2023-01-11T12:46:41.516Z,21.14
2023-01-11T12:49:26.571Z,21.03
2023-01-11T12:52:27.778Z,21.02
2023-01-11T12:55:08.226Z,20.99
2023-01-11T12:58:01.612Z,21.10
2023-01-11T13:00:56.300Z,21.13
2023-01-11T13:03:49.443Z,21.19
2023-01-11T13:06:30.709Z,21.21
2023-01-11T13:09:08.410Z,21.17
2023-01-11T13:11:56.729Z,21.17
2023-01-11T13:15:08.139Z,21.25
2023-01-11T13:17:58.264Z,21.28
2023-01-11T13:20:48.678Z,21.19
2023-01-11T13:23:36.122Z,21.15
2023-01-11T13:26:43.051Z,21.11
2023-01-11T13:29:32.313Z,21.16
2023-01-11T13:32:04.124Z,21.27
2023-01-11T13:34:53.032Z,21.25
2023-01-11T13:37:30.255Z,21.33
2023-01-11T13:40:38.649Z,21.41
2023-01-11T13:43:14.123Z,21.47
2023-01-11T13:45:48.948Z,21.36
2023-01-11T13:48:30.221Z,21.45
2023-01-11T13:51:20.693Z,21.62
2023-01-11T13:54:01.957Z,21.76
2023-01-11T13:56:37.238Z,21.86
2023-01-11T13:59:25.005Z,21.93
2023-01-11T14:01:59.839Z,21.83
2023-01-11T14:04:42.061Z,21.86
2023-01-11T14:07:50.767Z,21.87
2023-01-11T14:10:24.147Z,21.95
2023-01-11T14:13:43.230Z,21.87
2023-01-11T14:16:51.389Z,21.73
2023-01-11T14:19:39.814Z,21.60
2023-01-11T14:22:35.062Z,21.64
2023-01-11T14:25:09.342Z,21.71
2023-01-11T14:27:36.527Z,21.75
2023-01-11T14:30:20.985Z,21.76
2023-01-11T14:33:16.335Z,21.89
2023-01-11T14:35:51.811Z,22.05
2023-01-11T14:38:28.328Z,22.12
2023-01-11T14:41:01.163Z,22.15
2023-01-11T14:43:46.467Z,22.13
2023-01-11T14:46:35.556Z,21.99
2023-01-11T14:49:03.267Z,21.92
2023-01-11T14:52:09.004Z,21.94
2023-01-11T14:54:44.914Z,21.88
2023-01-11T14:57:39.853Z,21.91
2023-01-11T15:00:19.854Z,21.98
2023-01-11T15:02:51.413Z,21.95
2023-01-11T15:05:36.091Z,21.95
2023-01-11T15:08:15.452Z,21.94
2023-01-11T15:11:05.746Z,21.97
2023-01-11T15:13:43.457Z,22.07
2023-01-11T15:16:40.028Z,22.11
2023-01-11T15:19:23.959Z,22.09
2023-01-11T15:21:53.655Z,22.12
2023-01-11T15:24:29.642Z,22.21
2023-01-11T15:26:58.657Z,22.27
2023-01-11T15:29:34.153Z,22.24
2023-01-11T15:32:24.747Z,22.21
2023-01-11T15:34:52.423Z,22.14
2023-01-11T15:37:39.955Z,22.10
2023-01-11T15:40:26.977Z,22.10
2023-01-11T15:43:18.724Z,22.16
2023-01-11T15:46:28.568Z,22.11
2023-01-11T15:49:07.703Z,22.31
2023-01-11T15:51:53.394Z,22.52
2023-01-11T15:54:51.199Z,22.72
2023-01-11T15:57:48.948Z,22.62
2023-01-11T16:00:44.194Z,22.61
2023-01-11T16:03:39.743Z,22.52
2023-01-11T16:06:24.875Z,22.35
2023-01-11T16:09:06.850Z,22.29
2023-01-11T16:11:52.638Z,22.20
2023-01-11T16:14:22.536Z,22.23
2023-01-11T16:16:55.916Z,22.17
2023-01-11T16:19:26.603Z,22.00
2023-01-11T16:22:02.086Z,21.84
2023-01-11T16:24:33.349Z,21.81
2023-01-11T16:27:03.349Z,21.74
2023-01-11T16:29:36.410Z,21.65
2023-01-11T16:32:18.527Z,21.57
2023-01-11T16:34:48.918Z,21.53
2023-01-11T16:37:24.794Z,21.54
2023-01-11T16:39:57.504Z,21.49
2023-01-11T16:42:27.157Z,21.45
2023-01-11T16:44:59.959Z,21.42
2023-01-11T16:47:26.986Z,21.56
2023-01-11T16:50:21.534Z,21.58
2023-01-11T16:53:00.257Z,21.69
2023-01-11T16:55:40.320Z,21.88
2023-01-11T16:58:17.780Z,21.90
2023-01-11T17:00:57.885Z,21.84
2023-01-11T17:03:27.366Z,21.87
2023-01-11T17:05:55.533Z,21.76
2023-01-11T17:08:27.120Z,21.66
2023-01-11T17:10:57.993Z,21.63
2023-01-11T17:14:06.825Z,21.51
2023-01-11T17:16:47.055Z,21.43
2023-01-11T17:19:20.297Z,21.42
2023-01-11T17:21:53.414Z,21.36
2023-01-11T17:24:25.261Z,21.26
2023-01-11T17:26:56.487Z,21.20
2023-01-11T17:29:40.698Z,21.15
2023-01-11T17:32:15.643Z,21.04
2023-01-11T17:34:43.326Z,21.00
2023-01-11T17:37:15.332Z,20.96
2023-01-11T17:39:52.463Z,20.92
2023-01-11T17:42:38.664Z,20.87
2023-01-11T17:45:23.979Z,20.81
2023-01-11T17:47:54.103Z,20.77
2023-01-11T17:50:46.333Z,20.74
2023-01-11T17:53:17.802Z,20.69
2023-01-11T17:55:55.009Z,20.70
2023-01-11T17:58:29.814Z,20.68
2023-01-11T18:01:08.856Z,20.65
2023-01-11T18:03:58.951Z,20.66
2023-01-11T18:06:34.841Z,20.64
2023-01-11T18:09:07.997Z,20.59
2023-01-11T18:11:41.793Z,20.60
2023-01-11T18:14:17.582Z,20.60
2023-01-11T18:17:07.195Z,20.61
2023-01-11T18:19:45.598Z,20.61
2023-01-11T18:22:37.608Z,20.64
2023-01-11T18:25:17.006Z,20.64
2023-01-11T18:27:46.721Z,20.61
2023-01-11T18:30:32.233Z,20.64
2023-01-11T18:33:04.158Z,20.66
2023-01-11T18:35:31.490Z,20.70
2023-01-11T18:37:58.610Z,20.69
2023-01-11T18:40:25.743Z,20.68
2023-01-11T18:42:54.111Z,20.71
2023-01-11T18:45:22.149Z,20.70
2023-01-11T18:47:49.414Z,20.67
2023-01-11T18:50:19.471Z,20.67
2023-01-11T18:52:46.819Z,20.68
2023-01-11T18:55:14.892Z,20.69
2023-01-11T18:57:42.631Z,20.68
2023-01-11T19:00:14.835Z,20.64
2023-01-11T19:02:43.977Z,20.63
2023-01-11T19:05:13.982Z,20.63
2023-01-11T19:07:41.111Z,20.61
2023-01-11T19:10:09.792Z,20.62
2023-01-11T19:12:36.892Z,20.64
2023-01-11T19:15:04.282Z,20.64
2023-01-11T19:17:32.615Z,20.63
2023-01-11T19:19:59.628Z,20.54
2023-01-11T19:22:27.074Z,20.44
2023-01-11T19:24:55.042Z,20.34
2023-01-11T19:27:23.349Z,20.28
2023-01-11T19:29:50.545Z,20.28
2023-01-11T19:32:18.758Z,20.26
2023-01-11T19:34:45.877Z,20.27
2023-01-11T19:37:12.996Z,20.27
2023-01-11T19:39:40.478Z,20.25
2023-01-11T19:42:07.577Z,20.21
2023-01-11T19:44:39.303Z,20.21
2023-01-11T19:47:12.985Z,20.22
2023-01-11T19:49:41.353Z,20.21
2023-01-11T19:52:13.398Z,20.23
2023-01-11T19:54:44.232Z,20.20
2023-01-11T19:57:14.518Z,20.17
2023-01-11T19:59:42.343Z,20.19
2023-01-11T20:02:12.618Z,20.22
2023-01-11T20:04:40.599Z,20.26
2023-01-11T20:07:08.833Z,20.24
2023-01-11T20:09:39.698Z,20.21
2023-01-11T20:12:08.407Z,20.16
2023-01-11T20:14:36.612Z,20.10
2023-01-11T20:17:04.261Z,20.00
2023-01-11T20:19:31.344Z,19.94
2023-01-11T20:21:58.506Z,19.93
2023-01-11T20:24:28.794Z,19.93
2023-01-11T20:27:01.132Z,19.92
2023-01-11T20:29:29.318Z,19.88
2023-01-11T20:31:58.223Z,19.88
2023-01-11T20:34:30.148Z,19.85
2023-01-11T20:36:57.170Z,19.81
2023-01-11T20:39:25.693Z,19.73
2023-01-11T20:41:52.924Z,19.63
2023-01-11T20:44:28.327Z,19.59
2023-01-11T20:46:56.827Z,19.55
2023-01-11T20:49:26.232Z,19.56
2023-01-11T20:51:53.892Z,19.56
2023-01-11T20:54:21.579Z,19.54
2023-01-11T20:56:48.651Z,19.52
2023-01-11T20:59:19.926Z,19.45
2023-01-11T21:01:48.577Z,19.38
2023-01-11T21:04:17.601Z,19.37
2023-01-11T21:06:46.371Z,19.34
2023-01-11T21:09:15.563Z,19.32
2023-01-11T21:11:43.153Z,19.25
2023-01-11T21:14:12.348Z,19.26
2023-01-11T21:16:44.694Z,19.32
2023-01-11T21:19:13.593Z,19.32
2023-01-11T21:21:41.473Z,19.32
2023-01-11T21:24:14.830Z,19.28
2023-01-11T21:26:43.784Z,19.30
2023-01-11T21:29:11.977Z,19.33
2023-01-11T21:31:40.451Z,19.38
2023-01-11T21:34:08.367Z,19.39
2023-01-11T21:36:35.438Z,19.45
2023-01-11T21:39:03.819Z,19.53
2023-01-11T21:41:51.265Z,19.50
2023-01-11T21:44:20.588Z,19.50
2023-01-11T21:46:48.213Z,19.51
2023-01-11T21:49:16.441Z,19.49
2023-01-11T21:51:43.606Z,19.50
2023-01-11T21:54:13.115Z,19.44
2023-01-11T21:56:42.213Z,19.44
2023-01-11T21:59:09.882Z,19.41
2023-01-11T22:01:38.477Z,19.42
2023-01-11T22:04:10.162Z,19.35
2023-01-11T22:06:42.152Z,19.35
2023-01-11T22:09:11.291Z,19.38
2023-01-11T22:11:38.971Z,19.37
2023-01-11T22:14:08.028Z,19.38
2023-01-11T22:16:35.607Z,19.34
2023-01-11T22:19:06.444Z,19.36
2023-01-11T22:21:34.055Z,19.41
2023-01-11T22:24:01.223Z,19.45
2023-01-11T22:26:33.841Z,19.46
2023-01-11T22:29:15.586Z,19.44
2023-01-11T22:31:47.596Z,19.46
2023-01-11T22:34:15.728Z,19.44
2023-01-11T22:36:43.954Z,19.40
2023-01-11T22:39:12.723Z,19.36
2023-01-11T22:41:40.862Z,19.37
2023-01-11T22:44:09.775Z,19.39
2023-01-11T22:46:37.706Z,19.41
2023-01-11T22:49:06.370Z,19.40
2023-01-11T22:51:33.929Z,19.42
2023-01-11T22:54:01.135Z,19.47
2023-01-11T22:56:29.579Z,19.54
2023-01-11T22:58:57.943Z,19.58
2023-01-11T23:01:47.991Z,19.65
2023-01-11T23:04:15.203Z,19.66
2023-01-11T23:06:43.383Z,19.70
2023-01-11T23:09:15.974Z,19.76
2023-01-11T23:12:03.399Z,19.79
2023-01-11T23:14:33.298Z,19.83
2023-01-11T23:17:06.013Z,19.85
2023-01-11T23:19:34.658Z,19.86
2023-01-11T23:22:02.106Z,19.89
2023-01-11T23:24:29.311Z,19.90
2023-01-11T23:26:56.623Z,19.89
2023-01-11T23:29:23.976Z,19.89
2023-01-11T23:31:51.248Z,19.84
2023-01-11T23:34:18.402Z,19.84
2023-01-11T23:36:45.952Z,19.84
2023-01-11T23:39:15.474Z,19.86
2023-01-11T23:42:01.993Z,19.88
2023-01-11T23:44:29.256Z,19.88
2023-01-11T23:47:14.970Z,19.88
2023-01-11T23:49:43.874Z,19.92
2023-01-11T23:52:11.251Z,19.95
2023-01-11T23:54:38.624Z,19.99
2023-01-11T23:57:05.896Z,19.93
2023-01-11T23:59:33.250Z,19.88
